sensor_id;sensor_type;location;lat;lon;timestamp;P1;durP1;ratioP1;P2;durP2;ratioP2
68921;SDS011;55959;51.244;5.724;2023-12-22T00:02:20;4.17;;;1.40;;
68921;SDS011;55959;51.244;5.724;2023-12-22T00:04:48;2.97;;;1.10;;
68921;SDS011;55959;51.244;5.724;2023-12-22T00:07:14;3.93;;;1.07;;
68921;SDS011;55959;51.244;5.724;2023-12-22T00:09:39;4.40;;;1.37;;
68921;SDS011;55959;51.244;5.724;2023-12-22T00:12:05;5.27;;;1.33;;
68921;SDS011;55959;51.244;5.724;2023-12-22T00:14:31;5.63;;;1.63;;
68921;SDS011;55959;51.244;5.724;2023-12-22T00:16:57;3.60;;;1.30;;
68921;SDS011;55959;51.244;5.724;2023-12-22T00:19:23;3.80;;;1.03;;
68921;SDS011;55959;51.244;5.724;2023-12-22T00:21:49;4.10;;;1.57;;
68921;SDS011;55959;51.244;5.724;2023-12-22T00:24:14;5.87;;;2.00;;
68921;SDS011;55959;51.244;5.724;2023-12-22T00:26:40;5.60;;;1.30;;
68921;SDS011;55959;51.244;5.724;2023-12-22T00:29:06;4.37;;;1.30;;
68921;SDS011;55959;51.244;5.724;2023-12-22T00:31:32;4.23;;;1.80;;
68921;SDS011;55959;51.244;5.724;2023-12-22T00:33:57;6.67;;;2.10;;
68921;SDS011;55959;51.244;5.724;2023-12-22T00:36:23;4.23;;;1.30;;
68921;SDS011;55959;51.244;5.724;2023-12-22T00:38:49;3.53;;;1.63;;
68921;SDS011;55959;51.244;5.724;2023-12-22T00:41:15;3.17;;;1.10;;
68921;SDS011;55959;51.244;5.724;2023-12-22T00:43:41;4.13;;;1.27;;
68921;SDS011;55959;51.244;5.724;2023-12-22T00:46:07;6.97;;;1.97;;
68921;SDS011;55959;51.244;5.724;2023-12-22T00:48:32;4.87;;;1.23;;
68921;SDS011;55959;51.244;5.724;2023-12-22T00:50:58;4.53;;;1.40;;
68921;SDS011;55959;51.244;5.724;2023-12-22T00:53:24;7.17;;;2.00;;
68921;SDS011;55959;51.244;5.724;2023-12-22T00:55:50;5.40;;;1.57;;
68921;SDS011;55959;51.244;5.724;2023-12-22T00:58:16;6.40;;;1.57;;
68921;SDS011;55959;51.244;5.724;2023-12-22T01:00:42;3.27;;;1.60;;
68921;SDS011;55959;51.244;5.724;2023-12-22T01:03:07;4.90;;;1.50;;
68921;SDS011;55959;51.244;5.724;2023-12-22T01:05:33;6.77;;;2.07;;
68921;SDS011;55959;51.244;5.724;2023-12-22T01:07:59;6.50;;;1.80;;
68921;SDS011;55959;51.244;5.724;2023-12-22T01:10:25;6.13;;;1.73;;
68921;SDS011;55959;51.244;5.724;2023-12-22T01:12:50;4.57;;;1.50;;
68921;SDS011;55959;51.244;5.724;2023-12-22T01:15:16;5.67;;;2.00;;
68921;SDS011;55959;51.244;5.724;2023-12-22T01:17:42;7.40;;;1.60;;
68921;SDS011;55959;51.244;5.724;2023-12-22T01:20:07;6.23;;;1.77;;
68921;SDS011;55959;51.244;5.724;2023-12-22T01:22:34;3.60;;;1.70;;
68921;SDS011;55959;51.244;5.724;2023-12-22T01:25:03;7.20;;;2.77;;
68921;SDS011;55959;51.244;5.724;2023-12-22T01:27:30;5.30;;;1.90;;
68921;SDS011;55959;51.244;5.724;2023-12-22T01:29:56;6.07;;;1.97;;
68921;SDS011;55959;51.244;5.724;2023-12-22T01:32:22;3.70;;;1.33;;
68921;SDS011;55959;51.244;5.724;2023-12-22T01:34:48;4.23;;;1.43;;
68921;SDS011;55959;51.244;5.724;2023-12-22T01:37:13;5.77;;;1.10;;
68921;SDS011;55959;51.244;5.724;2023-12-22T01:39:39;3.53;;;1.10;;
68921;SDS011;55959;51.244;5.724;2023-12-22T01:42:05;4.17;;;1.60;;
68921;SDS011;55959;51.244;5.724;2023-12-22T01:44:30;4.93;;;1.20;;
68921;SDS011;55959;51.244;5.724;2023-12-22T01:46:56;4.57;;;1.23;;
68921;SDS011;55959;51.244;5.724;2023-12-22T01:49:23;3.43;;;1.07;;
68921;SDS011;55959;51.244;5.724;2023-12-22T01:51:50;9.70;;;1.93;;
68921;SDS011;55959;51.244;5.724;2023-12-22T01:54:17;4.73;;;1.40;;
68921;SDS011;55959;51.244;5.724;2023-12-22T01:56:43;6.47;;;1.57;;
68921;SDS011;55959;51.244;5.724;2023-12-22T01:59:10;5.00;;;1.30;;
68921;SDS011;55959;51.244;5.724;2023-12-22T02:01:37;5.93;;;1.60;;
68921;SDS011;55959;51.244;5.724;2023-12-22T02:04:04;6.33;;;2.00;;
68921;SDS011;55959;51.244;5.724;2023-12-22T02:06:31;5.03;;;1.13;;
68921;SDS011;55959;51.244;5.724;2023-12-22T02:09:00;5.33;;;1.40;;
68921;SDS011;55959;51.244;5.724;2023-12-22T02:11:26;6.53;;;1.77;;
68921;SDS011;55959;51.244;5.724;2023-12-22T02:13:52;3.87;;;1.37;;
68921;SDS011;55959;51.244;5.724;2023-12-22T02:16:19;7.33;;;1.93;;
68921;SDS011;55959;51.244;5.724;2023-12-22T02:18:55;4.83;;;1.57;;
68921;SDS011;55959;51.244;5.724;2023-12-22T02:21:24;5.43;;;1.40;;
68921;SDS011;55959;51.244;5.724;2023-12-22T02:23:50;3.83;;;1.40;;
68921;SDS011;55959;51.244;5.724;2023-12-22T02:26:17;6.80;;;2.00;;
68921;SDS011;55959;51.244;5.724;2023-12-22T02:28:52;6.97;;;1.70;;
68921;SDS011;55959;51.244;5.724;2023-12-22T02:31:24;4.60;;;1.40;;
68921;SDS011;55959;51.244;5.724;2023-12-22T02:34:01;4.23;;;1.37;;
68921;SDS011;55959;51.244;5.724;2023-12-22T02:36:33;6.77;;;2.03;;
68921;SDS011;55959;51.244;5.724;2023-12-22T02:39:01;5.53;;;1.87;;
68921;SDS011;55959;51.244;5.724;2023-12-22T02:41:28;7.60;;;1.93;;
68921;SDS011;55959;51.244;5.724;2023-12-22T02:43:54;9.43;;;1.87;;
68921;SDS011;55959;51.244;5.724;2023-12-22T02:46:20;6.17;;;1.30;;
68921;SDS011;55959;51.244;5.724;2023-12-22T02:48:46;4.53;;;1.50;;
68921;SDS011;55959;51.244;5.724;2023-12-22T02:51:12;6.07;;;1.40;;
68921;SDS011;55959;51.244;5.724;2023-12-22T02:53:38;6.63;;;2.23;;
68921;SDS011;55959;51.244;5.724;2023-12-22T02:56:04;9.77;;;2.37;;
68921;SDS011;55959;51.244;5.724;2023-12-22T02:58:30;6.80;;;1.30;;
68921;SDS011;55959;51.244;5.724;2023-12-22T03:00:56;4.43;;;1.77;;
68921;SDS011;55959;51.244;5.724;2023-12-22T03:03:21;5.63;;;1.47;;
68921;SDS011;55959;51.244;5.724;2023-12-22T03:05:47;3.83;;;1.10;;
68921;SDS011;55959;51.244;5.724;2023-12-22T03:08:13;5.43;;;1.67;;
68921;SDS011;55959;51.244;5.724;2023-12-22T03:10:38;5.77;;;1.40;;
68921;SDS011;55959;51.244;5.724;2023-12-22T03:13:04;3.73;;;1.00;;
68921;SDS011;55959;51.244;5.724;2023-12-22T03:15:30;4.93;;;1.50;;
68921;SDS011;55959;51.244;5.724;2023-12-22T03:17:55;5.20;;;1.47;;
68921;SDS011;55959;51.244;5.724;2023-12-22T03:20:21;6.30;;;1.93;;
68921;SDS011;55959;51.244;5.724;2023-12-22T03:22:47;5.23;;;1.57;;
68921;SDS011;55959;51.244;5.724;2023-12-22T03:25:12;4.10;;;1.40;;
68921;SDS011;55959;51.244;5.724;2023-12-22T03:27:38;6.03;;;1.43;;
68921;SDS011;55959;51.244;5.724;2023-12-22T03:30:04;6.60;;;2.07;;
68921;SDS011;55959;51.244;5.724;2023-12-22T03:32:30;5.17;;;1.60;;
68921;SDS011;55959;51.244;5.724;2023-12-22T03:34:56;5.13;;;1.70;;
68921;SDS011;55959;51.244;5.724;2023-12-22T03:37:22;4.07;;;1.63;;
68921;SDS011;55959;51.244;5.724;2023-12-22T03:39:47;4.10;;;1.27;;
68921;SDS011;55959;51.244;5.724;2023-12-22T03:42:13;5.23;;;1.60;;
68921;SDS011;55959;51.244;5.724;2023-12-22T03:44:39;4.80;;;1.50;;
68921;SDS011;55959;51.244;5.724;2023-12-22T03:47:05;4.57;;;1.30;;
68921;SDS011;55959;51.244;5.724;2023-12-22T03:49:30;3.73;;;1.07;;
68921;SDS011;55959;51.244;5.724;2023-12-22T03:51:56;5.23;;;1.70;;
68921;SDS011;55959;51.244;5.724;2023-12-22T03:54:22;5.40;;;1.73;;
68921;SDS011;55959;51.244;5.724;2023-12-22T03:56:47;7.73;;;2.07;;
68921;SDS011;55959;51.244;5.724;2023-12-22T03:59:13;6.27;;;1.67;;
68921;SDS011;55959;51.244;5.724;2023-12-22T04:01:39;5.43;;;1.43;;
68921;SDS011;55959;51.244;5.724;2023-12-22T04:04:04;6.77;;;1.87;;
68921;SDS011;55959;51.244;5.724;2023-12-22T04:06:30;8.73;;;1.70;;
68921;SDS011;55959;51.244;5.724;2023-12-22T04:08:56;5.43;;;1.57;;
68921;SDS011;55959;51.244;5.724;2023-12-22T04:11:22;5.10;;;1.77;;
68921;SDS011;55959;51.244;5.724;2023-12-22T04:13:47;5.73;;;1.40;;
68921;SDS011;55959;51.244;5.724;2023-12-22T04:16:13;4.17;;;2.10;;
68921;SDS011;55959;51.244;5.724;2023-12-22T04:18:39;5.37;;;1.70;;
68921;SDS011;55959;51.244;5.724;2023-12-22T04:21:04;4.80;;;1.57;;
68921;SDS011;55959;51.244;5.724;2023-12-22T04:23:30;4.67;;;1.43;;
68921;SDS011;55959;51.244;5.724;2023-12-22T04:25:56;5.43;;;1.73;;
68921;SDS011;55959;51.244;5.724;2023-12-22T04:28:22;6.57;;;1.80;;
68921;SDS011;55959;51.244;5.724;2023-12-22T04:30:47;8.07;;;1.77;;
68921;SDS011;55959;51.244;5.724;2023-12-22T04:33:13;6.63;;;1.70;;
68921;SDS011;55959;51.244;5.724;2023-12-22T04:35:39;5.50;;;1.80;;
68921;SDS011;55959;51.244;5.724;2023-12-22T04:38:05;8.37;;;2.43;;
68921;SDS011;55959;51.244;5.724;2023-12-22T04:40:31;4.47;;;1.40;;
68921;SDS011;55959;51.244;5.724;2023-12-22T04:42:57;7.37;;;2.10;;
68921;SDS011;55959;51.244;5.724;2023-12-22T04:45:22;6.00;;;1.70;;
68921;SDS011;55959;51.244;5.724;2023-12-22T04:47:48;7.20;;;1.63;;
68921;SDS011;55959;51.244;5.724;2023-12-22T04:50:14;5.67;;;1.63;;
68921;SDS011;55959;51.244;5.724;2023-12-22T04:52:39;5.63;;;1.43;;
68921;SDS011;55959;51.244;5.724;2023-12-22T04:55:05;5.77;;;1.73;;
68921;SDS011;55959;51.244;5.724;2023-12-22T04:57:31;7.13;;;1.77;;
68921;SDS011;55959;51.244;5.724;2023-12-22T04:59:57;7.37;;;1.73;;
68921;SDS011;55959;51.244;5.724;2023-12-22T05:02:22;8.90;;;2.23;;
68921;SDS011;55959;51.244;5.724;2023-12-22T05:04:48;6.07;;;1.80;;
68921;SDS011;55959;51.244;5.724;2023-12-22T05:07:15;5.93;;;1.70;;
68921;SDS011;55959;51.244;5.724;2023-12-22T05:09:41;5.83;;;1.60;;
68921;SDS011;55959;51.244;5.724;2023-12-22T05:12:07;7.60;;;2.03;;
68921;SDS011;55959;51.244;5.724;2023-12-22T05:14:33;7.20;;;2.03;;
68921;SDS011;55959;51.244;5.724;2023-12-22T05:16:59;7.07;;;1.97;;
68921;SDS011;55959;51.244;5.724;2023-12-22T05:19:25;4.67;;;1.90;;
68921;SDS011;55959;51.244;5.724;2023-12-22T05:21:51;8.90;;;2.20;;
68921;SDS011;55959;51.244;5.724;2023-12-22T05:24:20;4.90;;;1.57;;
68921;SDS011;55959;51.244;5.724;2023-12-22T05:26:47;8.47;;;1.93;;
68921;SDS011;55959;51.244;5.724;2023-12-22T05:29:12;8.20;;;1.90;;
68921;SDS011;55959;51.244;5.724;2023-12-22T05:31:38;8.30;;;1.90;;
68921;SDS011;55959;51.244;5.724;2023-12-22T05:34:05;4.77;;;1.53;;
68921;SDS011;55959;51.244;5.724;2023-12-22T05:36:31;8.73;;;2.20;;
68921;SDS011;55959;51.244;5.724;2023-12-22T05:38:57;5.43;;;1.60;;
68921;SDS011;55959;51.244;5.724;2023-12-22T05:41:23;7.87;;;1.73;;
68921;SDS011;55959;51.244;5.724;2023-12-22T05:43:49;5.27;;;1.73;;
68921;SDS011;55959;51.244;5.724;2023-12-22T05:46:14;7.83;;;1.70;;
68921;SDS011;55959;51.244;5.724;2023-12-22T05:48:40;5.57;;;1.90;;
68921;SDS011;55959;51.244;5.724;2023-12-22T05:51:06;6.87;;;2.07;;
68921;SDS011;55959;51.244;5.724;2023-12-22T05:53:38;9.33;;;2.07;;
68921;SDS011;55959;51.244;5.724;2023-12-22T05:56:06;6.67;;;1.53;;
68921;SDS011;55959;51.244;5.724;2023-12-22T05:58:45;5.90;;;1.70;;
68921;SDS011;55959;51.244;5.724;2023-12-22T06:01:19;8.83;;;2.40;;
68921;SDS011;55959;51.244;5.724;2023-12-22T06:03:45;6.80;;;1.90;;
68921;SDS011;55959;51.244;5.724;2023-12-22T06:06:11;7.67;;;2.10;;
68921;SDS011;55959;51.244;5.724;2023-12-22T06:08:37;7.97;;;2.40;;
68921;SDS011;55959;51.244;5.724;2023-12-22T06:11:03;5.93;;;2.00;;
68921;SDS011;55959;51.244;5.724;2023-12-22T06:13:30;9.87;;;2.07;;
68921;SDS011;55959;51.244;5.724;2023-12-22T06:15:56;11.73;;;2.83;;
68921;SDS011;55959;51.244;5.724;2023-12-22T06:18:22;7.47;;;2.13;;
68921;SDS011;55959;51.244;5.724;2023-12-22T06:20:47;7.03;;;2.40;;
68921;SDS011;55959;51.244;5.724;2023-12-22T06:23:13;9.33;;;2.60;;
68921;SDS011;55959;51.244;5.724;2023-12-22T06:25:39;10.07;;;2.80;;
68921;SDS011;55959;51.244;5.724;2023-12-22T06:28:05;10.27;;;2.97;;
68921;SDS011;55959;51.244;5.724;2023-12-22T06:30:31;8.57;;;2.93;;
68921;SDS011;55959;51.244;5.724;2023-12-22T06:32:56;10.20;;;2.43;;
68921;SDS011;55959;51.244;5.724;2023-12-22T06:35:22;7.07;;;2.80;;
68921;SDS011;55959;51.244;5.724;2023-12-22T06:37:50;8.40;;;3.03;;
68921;SDS011;55959;51.244;5.724;2023-12-22T06:40:16;8.40;;;2.60;;
68921;SDS011;55959;51.244;5.724;2023-12-22T06:42:45;9.97;;;2.80;;
68921;SDS011;55959;51.244;5.724;2023-12-22T06:45:11;10.00;;;3.27;;
68921;SDS011;55959;51.244;5.724;2023-12-22T06:47:37;11.30;;;3.40;;
68921;SDS011;55959;51.244;5.724;2023-12-22T06:50:03;9.30;;;2.47;;
68921;SDS011;55959;51.244;5.724;2023-12-22T06:52:29;11.57;;;3.07;;
68921;SDS011;55959;51.244;5.724;2023-12-22T06:54:57;10.20;;;2.70;;
68921;SDS011;55959;51.244;5.724;2023-12-22T06:57:23;10.57;;;2.80;;
68921;SDS011;55959;51.244;5.724;2023-12-22T06:59:48;10.37;;;2.80;;
68921;SDS011;55959;51.244;5.724;2023-12-22T07:02:14;10.33;;;3.73;;
68921;SDS011;55959;51.244;5.724;2023-12-22T07:05:00;11.00;;;3.83;;
68921;SDS011;55959;51.244;5.724;2023-12-22T07:07:48;11.67;;;3.77;;
68921;SDS011;55959;51.244;5.724;2023-12-22T07:10:15;13.03;;;3.80;;
68921;SDS011;55959;51.244;5.724;2023-12-22T07:12:41;6.60;;;2.90;;
68921;SDS011;55959;51.244;5.724;2023-12-22T07:15:07;8.40;;;2.90;;
68921;SDS011;55959;51.244;5.724;2023-12-22T07:17:33;14.00;;;3.20;;
68921;SDS011;55959;51.244;5.724;2023-12-22T07:20:00;8.03;;;3.33;;
68921;SDS011;55959;51.244;5.724;2023-12-22T07:22:28;11.27;;;3.50;;
68921;SDS011;55959;51.244;5.724;2023-12-22T07:24:54;10.77;;;3.07;;
68921;SDS011;55959;51.244;5.724;2023-12-22T07:27:20;11.27;;;3.40;;
68921;SDS011;55959;51.244;5.724;2023-12-22T07:29:46;9.63;;;2.97;;
68921;SDS011;55959;51.244;5.724;2023-12-22T07:32:12;9.17;;;3.07;;
68921;SDS011;55959;51.244;5.724;2023-12-22T07:34:38;9.07;;;2.73;;
68921;SDS011;55959;51.244;5.724;2023-12-22T07:37:03;9.00;;;2.63;;
68921;SDS011;55959;51.244;5.724;2023-12-22T07:39:32;12.00;;;2.97;;
68921;SDS011;55959;51.244;5.724;2023-12-22T07:41:59;12.27;;;3.43;;
68921;SDS011;55959;51.244;5.724;2023-12-22T07:44:24;12.43;;;3.00;;
68921;SDS011;55959;51.244;5.724;2023-12-22T07:46:57;8.30;;;2.70;;
68921;SDS011;55959;51.244;5.724;2023-12-22T07:49:24;11.93;;;3.10;;
68921;SDS011;55959;51.244;5.724;2023-12-22T07:51:50;10.13;;;2.87;;
68921;SDS011;55959;51.244;5.724;2023-12-22T07:54:17;12.60;;;3.77;;
68921;SDS011;55959;51.244;5.724;2023-12-22T07:56:43;9.37;;;3.10;;
68921;SDS011;55959;51.244;5.724;2023-12-22T07:59:09;8.03;;;2.83;;
68921;SDS011;55959;51.244;5.724;2023-12-22T08:01:35;9.30;;;2.93;;
68921;SDS011;55959;51.244;5.724;2023-12-22T08:04:00;9.53;;;3.10;;
68921;SDS011;55959;51.244;5.724;2023-12-22T08:06:26;9.17;;;2.67;;
68921;SDS011;55959;51.244;5.724;2023-12-22T08:08:52;9.97;;;3.10;;
68921;SDS011;55959;51.244;5.724;2023-12-22T08:11:19;9.40;;;3.17;;
68921;SDS011;55959;51.244;5.724;2023-12-22T08:13:45;5.80;;;2.50;;
68921;SDS011;55959;51.244;5.724;2023-12-22T08:16:12;6.67;;;2.50;;
68921;SDS011;55959;51.244;5.724;2023-12-22T08:18:38;8.07;;;2.33;;
68921;SDS011;55959;51.244;5.724;2023-12-22T08:21:03;8.20;;;2.60;;
68921;SDS011;55959;51.244;5.724;2023-12-22T08:23:31;8.40;;;3.20;;
68921;SDS011;55959;51.244;5.724;2023-12-22T08:25:56;7.17;;;2.27;;
68921;SDS011;55959;51.244;5.724;2023-12-22T08:28:23;7.03;;;2.50;;
68921;SDS011;55959;51.244;5.724;2023-12-22T08:30:49;9.53;;;3.17;;
68921;SDS011;55959;51.244;5.724;2023-12-22T08:33:14;5.13;;;2.43;;
68921;SDS011;55959;51.244;5.724;2023-12-22T08:35:40;8.33;;;2.70;;
68921;SDS011;55959;51.244;5.724;2023-12-22T08:38:06;9.70;;;2.63;;
68921;SDS011;55959;51.244;5.724;2023-12-22T08:40:32;8.03;;;2.53;;
68921;SDS011;55959;51.244;5.724;2023-12-22T08:42:57;8.23;;;2.20;;
68921;SDS011;55959;51.244;5.724;2023-12-22T08:45:26;6.87;;;2.03;;
68921;SDS011;55959;51.244;5.724;2023-12-22T08:47:53;6.20;;;2.13;;
68921;SDS011;55959;51.244;5.724;2023-12-22T08:50:20;6.87;;;2.67;;
68921;SDS011;55959;51.244;5.724;2023-12-22T08:52:46;6.40;;;1.63;;
68921;SDS011;55959;51.244;5.724;2023-12-22T08:55:12;5.93;;;1.83;;
68921;SDS011;55959;51.244;5.724;2023-12-22T08:57:39;4.73;;;2.07;;
68921;SDS011;55959;51.244;5.724;2023-12-22T09:00:05;4.60;;;1.73;;
68921;SDS011;55959;51.244;5.724;2023-12-22T09:02:31;6.73;;;2.00;;
68921;SDS011;55959;51.244;5.724;2023-12-22T09:04:57;6.33;;;1.67;;
68921;SDS011;55959;51.244;5.724;2023-12-22T09:07:22;4.93;;;1.83;;
68921;SDS011;55959;51.244;5.724;2023-12-22T09:09:49;3.50;;;1.40;;
68921;SDS011;55959;51.244;5.724;2023-12-22T09:12:15;4.50;;;1.40;;
68921;SDS011;55959;51.244;5.724;2023-12-22T09:14:41;5.50;;;1.53;;
68921;SDS011;55959;51.244;5.724;2023-12-22T09:17:07;5.83;;;1.70;;
68921;SDS011;55959;51.244;5.724;2023-12-22T09:19:33;4.10;;;1.47;;
68921;SDS011;55959;51.244;5.724;2023-12-22T09:22:00;4.00;;;1.57;;
68921;SDS011;55959;51.244;5.724;2023-12-22T09:24:26;3.10;;;1.30;;
68921;SDS011;55959;51.244;5.724;2023-12-22T09:26:51;2.63;;;1.10;;
68921;SDS011;55959;51.244;5.724;2023-12-22T09:29:17;3.13;;;1.60;;
68921;SDS011;55959;51.244;5.724;2023-12-22T09:31:43;2.90;;;1.17;;
68921;SDS011;55959;51.244;5.724;2023-12-22T09:34:09;4.03;;;1.43;;
68921;SDS011;55959;51.244;5.724;2023-12-22T09:36:34;3.03;;;1.53;;
68921;SDS011;55959;51.244;5.724;2023-12-22T09:39:00;4.00;;;1.00;;
68921;SDS011;55959;51.244;5.724;2023-12-22T09:41:26;3.77;;;1.30;;
68921;SDS011;55959;51.244;5.724;2023-12-22T09:43:53;2.20;;;1.10;;
68921;SDS011;55959;51.244;5.724;2023-12-22T09:46:23;4.20;;;1.30;;
68921;SDS011;55959;51.244;5.724;2023-12-22T09:48:51;3.50;;;1.20;;
68921;SDS011;55959;51.244;5.724;2023-12-22T09:51:18;3.67;;;1.20;;
68921;SDS011;55959;51.244;5.724;2023-12-22T09:53:44;3.13;;;1.40;;
68921;SDS011;55959;51.244;5.724;2023-12-22T09:56:11;2.40;;;0.90;;
68921;SDS011;55959;51.244;5.724;2023-12-22T09:58:38;2.17;;;1.00;;
68921;SDS011;55959;51.244;5.724;2023-12-22T10:01:05;3.97;;;1.30;;
68921;SDS011;55959;51.244;5.724;2023-12-22T10:03:35;2.53;;;1.23;;
68921;SDS011;55959;51.244;5.724;2023-12-22T10:06:03;2.70;;;1.13;;
68921;SDS011;55959;51.244;5.724;2023-12-22T10:08:29;3.17;;;1.70;;
68921;SDS011;55959;51.244;5.724;2023-12-22T10:10:56;3.80;;;1.27;;
68921;SDS011;55959;51.244;5.724;2023-12-22T10:13:22;2.13;;;1.00;;
68921;SDS011;55959;51.244;5.724;2023-12-22T10:15:48;2.70;;;1.17;;
68921;SDS011;55959;51.244;5.724;2023-12-22T10:18:14;3.70;;;1.07;;
68921;SDS011;55959;51.244;5.724;2023-12-22T10:20:40;1.00;;;0.80;;
68921;SDS011;55959;51.244;5.724;2023-12-22T10:23:08;2.93;;;1.10;;
68921;SDS011;55959;51.244;5.724;2023-12-22T10:25:33;1.47;;;1.00;;
68921;SDS011;55959;51.244;5.724;2023-12-22T10:27:59;2.53;;;0.97;;
68921;SDS011;55959;51.244;5.724;2023-12-22T10:30:25;1.70;;;0.80;;
68921;SDS011;55959;51.244;5.724;2023-12-22T10:32:53;2.37;;;0.90;;
68921;SDS011;55959;51.244;5.724;2023-12-22T10:35:22;3.03;;;1.17;;
68921;SDS011;55959;51.244;5.724;2023-12-22T10:37:48;1.33;;;0.80;;
68921;SDS011;55959;51.244;5.724;2023-12-22T10:40:18;2.63;;;1.03;;
68921;SDS011;55959;51.244;5.724;2023-12-22T10:42:44;2.57;;;0.80;;
68921;SDS011;55959;51.244;5.724;2023-12-22T10:45:10;2.43;;;0.90;;
68921;SDS011;55959;51.244;5.724;2023-12-22T10:47:37;1.87;;;0.90;;
68921;SDS011;55959;51.244;5.724;2023-12-22T10:50:05;1.67;;;0.80;;
68921;SDS011;55959;51.244;5.724;2023-12-22T10:52:31;2.20;;;0.97;;
68921;SDS011;55959;51.244;5.724;2023-12-22T10:54:57;3.23;;;0.93;;
68921;SDS011;55959;51.244;5.724;2023-12-22T10:57:24;0.83;;;0.60;;
68921;SDS011;55959;51.244;5.724;2023-12-22T10:59:52;1.73;;;0.70;;
68921;SDS011;55959;51.244;5.724;2023-12-22T11:02:21;1.50;;;0.60;;
68921;SDS011;55959;51.244;5.724;2023-12-22T11:04:57;2.63;;;0.70;;
68921;SDS011;55959;51.244;5.724;2023-12-22T11:07:30;0.90;;;0.50;;
68921;SDS011;55959;51.244;5.724;2023-12-22T11:10:06;1.27;;;0.50;;
68921;SDS011;55959;51.244;5.724;2023-12-22T11:12:36;2.23;;;0.87;;
68921;SDS011;55959;51.244;5.724;2023-12-22T11:15:03;2.27;;;0.60;;
68921;SDS011;55959;51.244;5.724;2023-12-22T11:17:32;3.67;;;0.90;;
68921;SDS011;55959;51.244;5.724;2023-12-22T11:20:00;2.53;;;0.77;;
68921;SDS011;55959;51.244;5.724;2023-12-22T11:22:27;1.97;;;0.80;;
68921;SDS011;55959;51.244;5.724;2023-12-22T11:24:56;0.97;;;0.50;;
68921;SDS011;55959;51.244;5.724;2023-12-22T11:27:24;2.03;;;0.67;;
68921;SDS011;55959;51.244;5.724;2023-12-22T11:29:51;2.30;;;0.70;;
68921;SDS011;55959;51.244;5.724;2023-12-22T11:32:18;1.63;;;0.60;;
68921;SDS011;55959;51.244;5.724;2023-12-22T11:34:45;1.97;;;0.70;;
68921;SDS011;55959;51.244;5.724;2023-12-22T11:37:12;1.77;;;0.87;;
68921;SDS011;55959;51.244;5.724;2023-12-22T11:39:42;2.07;;;0.60;;
68921;SDS011;55959;51.244;5.724;2023-12-22T11:42:10;1.63;;;0.60;;
68921;SDS011;55959;51.244;5.724;2023-12-22T11:44:41;3.77;;;0.83;;
68921;SDS011;55959;51.244;5.724;2023-12-22T11:47:07;2.37;;;0.60;;
68921;SDS011;55959;51.244;5.724;2023-12-22T11:49:37;0.90;;;0.60;;
68921;SDS011;55959;51.244;5.724;2023-12-22T11:52:09;2.50;;;0.57;;
68921;SDS011;55959;51.244;5.724;2023-12-22T11:54:46;1.90;;;0.70;;
68921;SDS011;55959;51.244;5.724;2023-12-22T11:57:28;1.97;;;0.60;;
68921;SDS011;55959;51.244;5.724;2023-12-22T11:59:55;1.33;;;0.40;;
68921;SDS011;55959;51.244;5.724;2023-12-22T12:02:21;1.07;;;0.50;;
68921;SDS011;55959;51.244;5.724;2023-12-22T12:04:47;2.37;;;0.60;;
68921;SDS011;55959;51.244;5.724;2023-12-22T12:10:10;1.00;;;0.53;;
68921;SDS011;55959;51.244;5.724;2023-12-22T12:12:37;1.73;;;0.60;;
68921;SDS011;55959;51.244;5.724;2023-12-22T12:15:11;1.50;;;1.00;;
68921;SDS011;55959;51.244;5.724;2023-12-22T12:17:42;1.80;;;0.53;;
68921;SDS011;55959;51.244;5.724;2023-12-22T12:20:09;1.30;;;0.57;;
68921;SDS011;55959;51.244;5.724;2023-12-22T12:22:36;1.80;;;0.70;;
68921;SDS011;55959;51.244;5.724;2023-12-22T12:25:06;1.63;;;0.70;;
68921;SDS011;55959;51.244;5.724;2023-12-22T12:27:36;1.27;;;0.60;;
68921;SDS011;55959;51.244;5.724;2023-12-22T12:30:21;3.87;;;0.70;;
68921;SDS011;55959;51.244;5.724;2023-12-22T12:32:47;1.70;;;0.63;;
68921;SDS011;55959;51.244;5.724;2023-12-22T12:35:14;1.43;;;0.80;;
68921;SDS011;55959;51.244;5.724;2023-12-22T12:37:41;2.27;;;0.90;;
68921;SDS011;55959;51.244;5.724;2023-12-22T12:40:13;2.10;;;0.60;;
68921;SDS011;55959;51.244;5.724;2023-12-22T12:42:44;1.53;;;0.50;;
68921;SDS011;55959;51.244;5.724;2023-12-22T12:45:10;1.40;;;0.60;;
68921;SDS011;55959;51.244;5.724;2023-12-22T12:47:36;2.97;;;0.80;;
68921;SDS011;55959;51.244;5.724;2023-12-22T12:50:02;2.30;;;0.70;;
68921;SDS011;55959;51.244;5.724;2023-12-22T12:52:29;1.33;;;0.50;;
68921;SDS011;55959;51.244;5.724;2023-12-22T12:54:55;3.50;;;0.80;;
68921;SDS011;55959;51.244;5.724;2023-12-22T12:57:23;1.60;;;0.70;;
68921;SDS011;55959;51.244;5.724;2023-12-22T12:59:49;1.80;;;0.50;;
68921;SDS011;55959;51.244;5.724;2023-12-22T13:02:16;2.50;;;0.60;;
68921;SDS011;55959;51.244;5.724;2023-12-22T13:04:43;1.57;;;0.70;;
68921;SDS011;55959;51.244;5.724;2023-12-22T13:07:08;3.17;;;0.60;;
68921;SDS011;55959;51.244;5.724;2023-12-22T13:09:40;2.87;;;0.60;;
68921;SDS011;55959;51.244;5.724;2023-12-22T13:12:07;1.57;;;0.97;;
68921;SDS011;55959;51.244;5.724;2023-12-22T13:14:33;3.13;;;0.83;;
68921;SDS011;55959;51.244;5.724;2023-12-22T13:16:59;3.67;;;0.90;;
68921;SDS011;55959;51.244;5.724;2023-12-22T13:19:25;2.37;;;0.60;;
68921;SDS011;55959;51.244;5.724;2023-12-22T13:21:55;2.70;;;0.90;;
68921;SDS011;55959;51.244;5.724;2023-12-22T13:24:21;2.10;;;0.70;;
68921;SDS011;55959;51.244;5.724;2023-12-22T13:27:03;3.50;;;0.67;;
68921;SDS011;55959;51.244;5.724;2023-12-22T13:29:41;2.10;;;0.50;;
68921;SDS011;55959;51.244;5.724;2023-12-22T13:32:11;2.93;;;0.70;;
68921;SDS011;55959;51.244;5.724;2023-12-22T13:34:53;2.43;;;0.70;;
68921;SDS011;55959;51.244;5.724;2023-12-22T13:37:19;2.33;;;0.80;;
68921;SDS011;55959;51.244;5.724;2023-12-22T13:39:46;1.23;;;0.83;;
68921;SDS011;55959;51.244;5.724;2023-12-22T13:42:16;1.97;;;0.87;;
68921;SDS011;55959;51.244;5.724;2023-12-22T13:44:44;3.10;;;1.20;;
68921;SDS011;55959;51.244;5.724;2023-12-22T13:47:12;2.93;;;0.70;;
68921;SDS011;55959;51.244;5.724;2023-12-22T13:49:43;2.13;;;0.80;;
68921;SDS011;55959;51.244;5.724;2023-12-22T13:52:29;2.70;;;1.00;;
68921;SDS011;55959;51.244;5.724;2023-12-22T13:54:57;3.33;;;1.03;;
68921;SDS011;55959;51.244;5.724;2023-12-22T13:57:26;1.47;;;0.70;;
68921;SDS011;55959;51.244;5.724;2023-12-22T13:59:52;1.10;;;0.60;;
68921;SDS011;55959;51.244;5.724;2023-12-22T14:02:19;3.37;;;1.17;;
68921;SDS011;55959;51.244;5.724;2023-12-22T14:04:49;1.93;;;0.70;;
68921;SDS011;55959;51.244;5.724;2023-12-22T14:07:16;2.70;;;0.80;;
68921;SDS011;55959;51.244;5.724;2023-12-22T14:09:41;1.50;;;0.60;;
68921;SDS011;55959;51.244;5.724;2023-12-22T14:12:07;3.07;;;0.87;;
68921;SDS011;55959;51.244;5.724;2023-12-22T14:14:33;2.27;;;0.93;;
68921;SDS011;55959;51.244;5.724;2023-12-22T14:16:59;1.77;;;0.60;;
68921;SDS011;55959;51.244;5.724;2023-12-22T14:19:24;2.67;;;0.60;;
68921;SDS011;55959;51.244;5.724;2023-12-22T14:21:50;1.80;;;0.73;;
68921;SDS011;55959;51.244;5.724;2023-12-22T14:24:16;2.50;;;0.70;;
68921;SDS011;55959;51.244;5.724;2023-12-22T14:26:54;1.17;;;0.57;;
68921;SDS011;55959;51.244;5.724;2023-12-22T14:29:21;1.83;;;0.67;;
68921;SDS011;55959;51.244;5.724;2023-12-22T14:31:49;1.83;;;0.97;;
68921;SDS011;55959;51.244;5.724;2023-12-22T14:34:16;1.33;;;0.70;;
68921;SDS011;55959;51.244;5.724;2023-12-22T14:36:45;1.30;;;0.80;;
68921;SDS011;55959;51.244;5.724;2023-12-22T14:39:11;1.57;;;0.80;;
68921;SDS011;55959;51.244;5.724;2023-12-22T14:41:41;2.27;;;0.90;;
68921;SDS011;55959;51.244;5.724;2023-12-22T14:44:07;2.90;;;1.10;;
68921;SDS011;55959;51.244;5.724;2023-12-22T14:46:37;2.43;;;0.70;;
68921;SDS011;55959;51.244;5.724;2023-12-22T14:49:06;1.93;;;0.80;;
68921;SDS011;55959;51.244;5.724;2023-12-22T14:51:38;1.77;;;0.73;;